createdAt,value
2022-07-28T00:00:56.268Z,62.70
2022-07-28T00:03:23.556Z,62.90
2022-07-28T00:05:50.295Z,63.10
2022-07-28T00:08:17.128Z,63.10
2022-07-28T00:10:43.908Z,63.10
2022-07-28T00:13:10.739Z,63.10
2022-07-28T00:15:37.689Z,63.30
2022-07-28T00:18:04.505Z,63.60
2022-07-28T00:20:31.204Z,63.60
2022-07-28T00:22:58.027Z,63.70
2022-07-28T00:25:24.773Z,63.80
2022-07-28T00:27:51.449Z,63.80
2022-07-28T00:30:18.138Z,63.90
2022-07-28T00:32:46.349Z,64.00
2022-07-28T00:35:13.285Z,64.10
2022-07-28T00:37:41.702Z,64.10
2022-07-28T00:40:09.713Z,64.20
2022-07-28T00:42:36.410Z,64.40
2022-07-28T00:45:03.577Z,64.40
2022-07-28T00:47:33.907Z,64.40
2022-07-28T00:50:05.803Z,64.50
2022-07-28T00:52:32.873Z,64.60
2022-07-28T00:54:59.806Z,64.60
2022-07-28T00:57:26.483Z,64.80
2022-07-28T00:59:53.138Z,64.90
2022-07-28T01:02:20.534Z,65.00
2022-07-28T01:04:47.448Z,64.90
2022-07-28T01:07:35.036Z,65.00
2022-07-28T01:10:18.899Z,65.40
2022-07-28T01:13:03.373Z,65.70
2022-07-28T01:15:35.746Z,65.60
2022-07-28T01:18:19.167Z,65.30
2022-07-28T01:20:49.880Z,65.80
2022-07-28T01:23:54.013Z,65.20
2022-07-28T01:26:23.423Z,65.60
2022-07-28T01:29:30.506Z,65.30
2022-07-28T01:32:05.211Z,66.20
2022-07-28T01:34:55.785Z,65.50
2022-07-28T01:37:28.893Z,66.30
2022-07-28T01:40:00.004Z,65.90
2022-07-28T01:42:33.278Z,66.10
2022-07-28T01:45:02.070Z,66.00
2022-07-28T01:47:30.632Z,66.10
2022-07-28T01:50:06.468Z,66.20
2022-07-28T01:52:35.694Z,66.60
2022-07-28T01:55:04.003Z,66.90
2022-07-28T01:57:32.850Z,67.00
2022-07-28T02:00:01.014Z,67.20
2022-07-28T02:02:30.918Z,67.50
2022-07-28T02:04:59.316Z,67.50
2022-07-28T02:07:27.404Z,67.70
2022-07-28T02:09:56.513Z,68.10
2022-07-28T02:12:26.224Z,68.20
2022-07-28T02:14:53.637Z,68.30
2022-07-28T02:17:25.360Z,68.40
2022-07-28T02:19:53.433Z,68.50
2022-07-28T02:22:21.060Z,68.60
2022-07-28T02:24:48.579Z,68.60
2022-07-28T02:27:23.796Z,68.60
2022-07-28T02:30:02.087Z,69.20
2022-07-28T02:32:47.537Z,69.40
2022-07-28T02:35:32.027Z,69.70
2022-07-28T02:38:07.057Z,69.40
2022-07-28T02:40:36.808Z,69.40
2022-07-28T02:43:08.293Z,69.30
2022-07-28T02:45:38.235Z,69.60
2022-07-28T02:48:10.611Z,69.50
2022-07-28T02:50:40.847Z,69.70
2022-07-28T02:53:15.020Z,69.80
2022-07-28T02:55:47.243Z,69.70
2022-07-28T02:58:16.351Z,69.70
2022-07-28T03:00:44.151Z,69.70
2022-07-28T03:03:11.327Z,69.80
2022-07-28T03:05:41.008Z,70.00
2022-07-28T03:08:08.716Z,70.20
2022-07-28T03:10:35.467Z,70.10
2022-07-28T03:13:06.750Z,70.20
2022-07-28T03:15:34.495Z,70.40
2022-07-28T03:18:03.296Z,70.20
2022-07-28T03:20:30.283Z,70.40
2022-07-28T03:22:58.369Z,70.60
2022-07-28T03:25:46.406Z,70.60
2022-07-28T03:28:19.327Z,71.00
2022-07-28T03:30:52.160Z,70.80
2022-07-28T03:33:19.211Z,71.20
2022-07-28T03:35:49.816Z,70.80
2022-07-28T03:38:28.718Z,71.10
2022-07-28T03:40:56.363Z,71.50
2022-07-28T03:43:26.199Z,71.30
2022-07-28T03:45:53.168Z,71.60
2022-07-28T03:48:23.347Z,71.30
2022-07-28T03:50:50.049Z,71.20
2022-07-28T03:53:27.257Z,71.00
2022-07-28T03:55:54.250Z,71.60
2022-07-28T03:58:26.169Z,71.20
2022-07-28T04:00:56.796Z,71.30
2022-07-28T04:03:42.615Z,71.50
2022-07-28T04:06:14.959Z,71.70
2022-07-28T04:08:43.749Z,71.60
2022-07-28T04:11:10.586Z,71.60
2022-07-28T04:13:37.527Z,71.90
2022-07-28T04:16:05.486Z,72.30
2022-07-28T04:18:32.517Z,72.10
2022-07-28T04:20:59.236Z,72.30
2022-07-28T04:23:26.044Z,72.60
2022-07-28T04:25:52.809Z,73.00
2022-07-28T04:28:19.546Z,72.90
2022-07-28T04:30:46.304Z,73.00
2022-07-28T04:33:13.825Z,73.10
2022-07-28T04:35:40.686Z,73.00
2022-07-28T04:38:07.945Z,72.80
2022-07-28T04:40:34.820Z,73.00
2022-07-28T04:43:01.794Z,73.10
2022-07-28T04:45:28.570Z,73.40
2022-07-28T04:47:55.274Z,74.70
2022-07-28T04:50:21.990Z,74.50
2022-07-28T04:52:57.527Z,75.20
2022-07-28T04:55:24.895Z,75.10
2022-07-28T04:57:51.646Z,75.50
2022-07-28T05:00:19.938Z,76.00
2022-07-28T05:02:49.019Z,76.40
2022-07-28T05:05:15.853Z,76.50
2022-07-28T05:07:42.626Z,76.40
2022-07-28T05:10:11.580Z,76.60
2022-07-28T05:12:38.497Z,76.70
2022-07-28T05:15:06.823Z,76.50
2022-07-28T05:17:33.737Z,76.10
2022-07-28T05:20:00.436Z,75.70
2022-07-28T05:22:44.794Z,75.30
2022-07-28T05:25:19.948Z,74.80
2022-07-28T05:27:47.887Z,74.30
2022-07-28T05:30:16.484Z,73.80
2022-07-28T05:32:45.219Z,73.60
2022-07-28T05:35:12.871Z,74.00
2022-07-28T05:37:39.548Z,72.80
2022-07-28T05:40:14.117Z,72.60
2022-07-28T05:42:42.446Z,72.30
2022-07-28T05:45:16.357Z,72.10
2022-07-28T05:47:49.200Z,72.00
2022-07-28T05:50:17.850Z,72.10
2022-07-28T05:52:45.004Z,72.20
2022-07-28T05:55:12.022Z,72.20
2022-07-28T05:57:39.782Z,72.00
2022-07-28T06:00:11.812Z,71.50
2022-07-28T06:02:39.313Z,71.20
2022-07-28T06:05:06.608Z,71.20
2022-07-28T06:07:43.723Z,71.20
2022-07-28T06:10:18.939Z,70.70
2022-07-28T06:12:48.222Z,70.10
2022-07-28T06:15:20.659Z,69.90
2022-07-28T06:17:48.124Z,69.20
2022-07-28T06:20:15.151Z,68.70
2022-07-28T06:22:53.326Z,68.50
2022-07-28T06:25:22.449Z,68.30
2022-07-28T06:27:51.514Z,68.50
2022-07-28T06:30:19.335Z,69.10
2022-07-28T06:32:47.066Z,69.40
2022-07-28T06:35:16.387Z,69.80
2022-07-28T06:37:47.549Z,69.70
2022-07-28T06:40:15.612Z,69.40
2022-07-28T06:42:42.877Z,69.10
2022-07-28T06:45:19.734Z,68.40
2022-07-28T06:47:49.237Z,67.70
2022-07-28T06:50:24.952Z,67.30
2022-07-28T06:52:57.268Z,67.30
2022-07-28T06:55:28.483Z,67.30
2022-07-28T06:58:02.303Z,66.90
2022-07-28T07:00:29.253Z,67.00
2022-07-28T07:02:56.005Z,66.00
2022-07-28T07:05:22.935Z,66.10
2022-07-28T07:07:49.618Z,65.60
2022-07-28T07:10:16.368Z,64.70
2022-07-28T07:12:43.030Z,64.30
2022-07-28T07:15:10.545Z,63.70
2022-07-28T07:17:41.710Z,63.40
2022-07-28T07:20:09.421Z,63.70
2022-07-28T07:22:42.159Z,63.30
2022-07-28T07:25:13.725Z,62.10
2022-07-28T07:27:40.831Z,61.60
2022-07-28T07:30:08.814Z,61.90
2022-07-28T07:32:35.691Z,61.80
2022-07-28T07:35:02.603Z,61.40
2022-07-28T07:37:32.290Z,60.60
2022-07-28T07:40:00.091Z,60.20
2022-07-28T07:42:26.893Z,59.70
2022-07-28T07:44:53.680Z,59.30
2022-07-28T07:47:20.552Z,59.20
2022-07-28T07:49:47.197Z,59.40
2022-07-28T07:52:14.343Z,59.60
2022-07-28T07:54:41.709Z,59.90
2022-07-28T07:57:09.242Z,59.70
2022-07-28T07:59:35.962Z,58.90
2022-07-28T08:02:03.120Z,58.10
2022-07-28T08:04:29.982Z,57.10
2022-07-28T08:06:56.713Z,56.60
2022-07-28T08:09:23.465Z,56.00
2022-07-28T08:11:50.287Z,55.70
2022-07-28T08:14:17.470Z,56.10
2022-07-28T08:16:44.543Z,56.10
2022-07-28T08:19:11.638Z,55.50
2022-07-28T08:21:38.628Z,55.20
2022-07-28T08:24:05.688Z,54.30
2022-07-28T08:26:32.417Z,53.90
2022-07-28T08:28:59.132Z,53.50
2022-07-28T08:31:25.984Z,52.60
2022-07-28T08:33:54.043Z,53.30
2022-07-28T08:36:21.941Z,52.80
2022-07-28T08:38:48.647Z,53.00
2022-07-28T08:41:26.558Z,52.60
2022-07-28T08:44:03.787Z,52.40
2022-07-28T08:46:38.127Z,52.10
2022-07-28T08:49:09.473Z,50.80
2022-07-28T08:51:37.856Z,50.10
2022-07-28T08:54:06.162Z,49.70
2022-07-28T08:56:33.201Z,50.10
2022-07-28T08:59:01.794Z,49.80
2022-07-28T09:01:38.322Z,48.80
2022-07-28T09:04:07.814Z,49.30
2022-07-28T09:06:35.175Z,49.10
2022-07-28T09:09:01.885Z,48.60
2022-07-28T09:11:28.837Z,48.10
2022-07-28T09:13:55.572Z,48.20
2022-07-28T09:16:22.470Z,47.80
2022-07-28T09:18:49.219Z,47.40
2022-07-28T09:21:16.119Z,47.40
2022-07-28T09:23:47.966Z,47.90
2022-07-28T09:26:15.577Z,47.40
2022-07-28T09:28:59.001Z,47.70
2022-07-28T09:31:28.406Z,46.60
2022-07-28T09:33:55.067Z,46.90
2022-07-28T09:36:22.007Z,46.80
2022-07-28T09:38:48.777Z,46.90
2022-07-28T09:41:18.652Z,46.10
2022-07-28T09:43:49.849Z,46.70
2022-07-28T09:46:22.117Z,47.00
2022-07-28T09:48:49.167Z,47.30
2022-07-28T09:51:28.527Z,46.50
2022-07-28T09:54:14.601Z,45.40
2022-07-28T09:56:45.079Z,45.30
2022-07-28T09:59:14.921Z,46.20
2022-07-28T10:01:52.313Z,45.50
2022-07-28T10:04:29.489Z,44.50
2022-07-28T10:07:17.963Z,44.20
2022-07-28T10:09:55.531Z,44.60
2022-07-28T10:12:24.277Z,45.30
2022-07-28T10:14:53.476Z,45.50
2022-07-28T10:17:25.964Z,45.80
2022-07-28T10:19:54.893Z,45.70
2022-07-28T10:22:25.165Z,46.20
2022-07-28T10:24:53.892Z,45.30
2022-07-28T10:27:22.952Z,45.00
2022-07-28T10:30:01.367Z,43.90
2022-07-28T10:32:31.930Z,42.90
2022-07-28T10:35:15.530Z,43.50
2022-07-28T10:38:07.923Z,42.50
2022-07-28T10:40:40.397Z,43.00
2022-07-28T10:43:08.347Z,42.80
2022-07-28T10:46:03.262Z,43.40
2022-07-28T10:48:23.659Z,43.10
2022-07-28T10:50:51.737Z,43.50
2022-07-28T10:53:47.067Z,43.70
2022-07-28T10:56:18.087Z,43.80
2022-07-28T10:59:14.029Z,43.90
2022-07-28T11:01:50.081Z,43.00
2022-07-28T11:04:48.241Z,43.30
2022-07-28T11:07:17.012Z,43.10
2022-07-28T11:09:44.604Z,44.00
2022-07-28T11:12:15.399Z,44.40
2022-07-28T11:14:43.689Z,44.70
2022-07-28T11:17:13.344Z,44.50
2022-07-28T11:22:34.310Z,44.10
2022-07-28T11:25:18.955Z,44.40
2022-07-28T11:27:51.132Z,44.50
2022-07-28T11:30:35.571Z,44.90
2022-07-28T11:33:04.305Z,44.90
2022-07-28T11:35:40.197Z,45.30
2022-07-28T11:38:12.388Z,45.50
2022-07-28T11:40:42.239Z,46.00
2022-07-28T11:43:22.531Z,46.10
2022-07-28T11:46:11.329Z,46.60
2022-07-28T11:48:44.551Z,46.80
2022-07-28T11:51:13.232Z,46.20
2022-07-28T11:53:53.448Z,46.00
2022-07-28T11:56:25.581Z,46.00
2022-07-28T11:59:06.223Z,46.10
2022-07-28T12:01:38.421Z,46.40
2022-07-28T12:04:11.954Z,46.70
2022-07-28T12:06:42.434Z,46.90
2022-07-28T12:09:10.589Z,47.00
2022-07-28T12:11:42.026Z,47.10
2022-07-28T12:14:14.755Z,47.30
2022-07-28T12:16:49.421Z,47.40
2022-07-28T12:19:18.455Z,47.60
2022-07-28T12:21:50.900Z,47.60
2022-07-28T12:24:46.054Z,48.00
2022-07-28T12:27:14.984Z,48.20
2022-07-28T12:29:43.825Z,48.10
2022-07-28T12:32:14.650Z,48.10
2022-07-28T12:34:43.376Z,47.90
2022-07-28T12:37:10.240Z,47.70
2022-07-28T12:39:41.913Z,47.90
2022-07-28T12:42:11.333Z,47.70
2022-07-28T12:44:42.943Z,47.90
2022-07-28T12:47:12.970Z,48.50
2022-07-28T12:49:44.329Z,48.30
2022-07-28T12:52:19.149Z,48.60
2022-07-28T12:54:52.995Z,48.70
2022-07-28T12:57:48.731Z,48.40
2022-07-28T13:00:19.215Z,48.60
2022-07-28T13:02:46.758Z,48.40
2022-07-28T13:05:55.265Z,48.60
2022-07-28T13:08:27.633Z,48.30
2022-07-28T13:10:58.619Z,48.20
2022-07-28T13:13:26.793Z,48.40
2022-07-28T13:16:17.726Z,48.40
2022-07-28T13:18:47.642Z,48.70
2022-07-28T13:21:15.646Z,48.60
2022-07-28T13:23:43.075Z,48.40
2022-07-28T13:26:09.919Z,48.20
2022-07-28T13:28:36.707Z,48.10
2022-07-28T13:31:03.479Z,48.10
2022-07-28T13:33:30.252Z,48.00
2022-07-28T13:35:58.541Z,48.40
2022-07-28T13:38:25.215Z,48.10
2022-07-28T13:40:51.838Z,48.00
2022-07-28T13:43:18.579Z,48.00
2022-07-28T13:45:47.356Z,48.10
2022-07-28T13:48:14.081Z,48.10
2022-07-28T13:50:40.758Z,48.10
2022-07-28T13:53:32.327Z,48.10
2022-07-28T13:55:59.013Z,48.20
2022-07-28T13:58:26.134Z,48.10
2022-07-28T14:00:53.938Z,48.20
2022-07-28T14:03:21.223Z,48.00
2022-07-28T14:05:48.060Z,48.10
2022-07-28T14:08:19.245Z,47.80
2022-07-28T14:10:48.263Z,48.00
2022-07-28T14:13:15.646Z,48.00
2022-07-28T14:15:42.377Z,48.10
2022-07-28T14:18:09.281Z,48.30
2022-07-28T14:20:35.989Z,48.00
2022-07-28T14:23:02.803Z,48.40
2022-07-28T14:25:47.830Z,48.30
2022-07-28T14:28:15.581Z,48.40
2022-07-28T14:30:42.673Z,48.40
2022-07-28T14:33:09.364Z,48.60
2022-07-28T14:35:36.057Z,48.50
2022-07-28T14:38:49.639Z,49.40
2022-07-28T14:40:52.037Z,48.60
2022-07-28T14:43:18.739Z,48.60
2022-07-28T14:45:51.490Z,48.70
2022-07-28T14:48:32.507Z,48.70
2022-07-28T14:51:01.138Z,48.70
2022-07-28T14:53:28.371Z,48.60
2022-07-28T14:55:55.326Z,48.40
2022-07-28T14:58:22.130Z,48.70
2022-07-28T15:00:48.837Z,48.50
2022-07-28T15:03:16.895Z,48.40
2022-07-28T15:05:43.867Z,48.50
2022-07-28T15:08:10.553Z,48.60
2022-07-28T15:10:37.299Z,48.50
2022-07-28T15:13:04.003Z,48.70
2022-07-28T15:15:30.683Z,48.60
2022-07-28T15:17:57.519Z,48.60
2022-07-28T15:20:24.421Z,48.30
2022-07-28T15:22:51.134Z,48.20
2022-07-28T15:25:18.099Z,48.40
2022-07-28T15:27:44.766Z,48.40
2022-07-28T15:30:12.951Z,48.50
2022-07-28T15:32:52.591Z,48.30
2022-07-28T15:35:23.627Z,48.50
2022-07-28T15:37:50.294Z,48.70
2022-07-28T15:40:16.982Z,48.90
2022-07-28T15:42:43.646Z,48.90
2022-07-28T15:45:10.826Z,48.80
2022-07-28T15:47:37.597Z,49.50
2022-07-28T15:50:04.648Z,48.70
2022-07-28T15:52:31.315Z,48.50
2022-07-28T15:54:58.002Z,48.50
2022-07-28T15:57:25.128Z,48.70
2022-07-28T16:00:05.863Z,48.70
2022-07-28T16:02:32.711Z,48.80
2022-07-28T16:05:00.981Z,48.90
2022-07-28T16:07:29.382Z,48.80
2022-07-28T16:09:56.160Z,48.80
2022-07-28T16:12:25.242Z,49.00
2022-07-28T16:14:53.814Z,48.80
2022-07-28T16:17:21.494Z,48.80
2022-07-28T16:19:50.283Z,48.70
2022-07-28T16:22:21.515Z,48.70
2022-07-28T16:24:49.199Z,48.80
2022-07-28T16:27:16.046Z,48.90
2022-07-28T16:29:43.560Z,49.00
2022-07-28T16:32:11.082Z,48.90
2022-07-28T16:34:37.739Z,49.00
2022-07-28T16:37:05.918Z,48.90
2022-07-28T16:39:34.172Z,48.90
2022-07-28T16:42:01.393Z,48.80
2022-07-28T16:44:28.589Z,48.90
2022-07-28T16:46:55.330Z,48.90
2022-07-28T16:49:22.217Z,49.10
2022-07-28T16:51:48.991Z,49.20
2022-07-28T16:54:16.043Z,49.20
2022-07-28T16:56:42.957Z,49.20
2022-07-28T16:59:09.645Z,49.30
2022-07-28T17:01:36.345Z,49.20
2022-07-28T17:04:03.195Z,49.20
2022-07-28T17:06:30.051Z,49.40
2022-07-28T17:08:57.002Z,49.50
2022-07-28T17:11:23.828Z,49.50
2022-07-28T17:13:50.586Z,49.30
2022-07-28T17:16:17.317Z,49.30
2022-07-28T17:18:44.009Z,49.40
2022-07-28T17:21:11.035Z,49.40
2022-07-28T17:23:39.946Z,49.30
2022-07-28T17:28:53.945Z,49.20
2022-07-28T17:31:21.364Z,49.20
2022-07-28T17:33:48.119Z,49.30
2022-07-28T17:36:15.798Z,49.40
2022-07-28T17:38:45.819Z,49.60
2022-07-28T17:41:12.639Z,49.50
2022-07-28T17:43:45.152Z,49.60
2022-07-28T17:46:12.806Z,49.50
2022-07-28T17:48:39.836Z,49.50
2022-07-28T17:51:06.897Z,49.50
2022-07-28T17:53:39.233Z,49.60
2022-07-28T17:56:07.000Z,49.80
2022-07-28T17:58:35.861Z,49.70
2022-07-28T18:01:10.719Z,49.80
2022-07-28T18:03:58.940Z,49.90
2022-07-28T18:06:38.270Z,50.00
2022-07-28T18:09:08.134Z,50.10
2022-07-28T18:11:56.692Z,50.10
2022-07-28T18:14:26.339Z,50.10
2022-07-28T18:16:53.232Z,50.10
2022-07-28T18:19:19.916Z,50.00
2022-07-28T18:21:46.565Z,50.00
2022-07-28T18:24:13.600Z,50.10
2022-07-28T18:26:40.558Z,50.20
2022-07-28T18:29:07.241Z,50.30
2022-07-28T18:31:33.920Z,50.50
2022-07-28T18:34:00.627Z,50.40
2022-07-28T18:36:27.311Z,50.40
2022-07-28T18:38:53.980Z,50.50
2022-07-28T18:41:20.722Z,50.50
2022-07-28T18:43:47.360Z,50.50
2022-07-28T18:46:14.131Z,50.50
2022-07-28T18:48:40.950Z,50.60
2022-07-28T18:51:08.736Z,50.70
2022-07-28T18:53:36.256Z,50.90
2022-07-28T18:56:03.010Z,51.00
2022-07-28T18:58:29.727Z,51.10
2022-07-28T19:00:56.591Z,51.20
2022-07-28T19:03:23.285Z,51.30
2022-07-28T19:05:50.171Z,51.40
2022-07-28T19:08:17.136Z,51.50
2022-07-28T19:10:44.084Z,51.60
2022-07-28T19:13:13.083Z,51.50
2022-07-28T19:15:41.477Z,51.60
2022-07-28T19:18:08.911Z,51.60
2022-07-28T19:20:44.291Z,51.70
2022-07-28T19:23:11.284Z,51.80
2022-07-28T19:25:41.289Z,51.70
2022-07-28T19:28:08.095Z,52.50
2022-07-28T19:30:35.006Z,51.90
2022-07-28T19:33:02.586Z,51.90
2022-07-28T19:35:29.293Z,52.00
2022-07-28T19:37:59.584Z,52.10
2022-07-28T19:40:29.053Z,52.80
2022-07-28T19:42:56.676Z,52.20
2022-07-28T19:45:25.067Z,52.20
2022-07-28T19:47:51.814Z,52.20
2022-07-28T19:50:18.496Z,52.20
2022-07-28T19:52:45.301Z,52.30
2022-07-28T19:55:12.830Z,52.30
2022-07-28T19:57:45.309Z,52.40
2022-07-28T20:00:13.075Z,52.40
2022-07-28T20:02:40.224Z,52.40
2022-07-28T20:05:08.175Z,52.50
2022-07-28T20:07:35.096Z,52.50
2022-07-28T20:10:02.029Z,52.50
2022-07-28T20:12:34.190Z,52.50
2022-07-28T20:15:00.997Z,52.50
2022-07-28T20:17:38.133Z,52.60
2022-07-28T20:20:07.979Z,52.60
2022-07-28T20:22:34.839Z,52.80
2022-07-28T20:25:01.578Z,52.80
2022-07-28T20:27:28.221Z,52.90
2022-07-28T20:29:54.874Z,52.90
2022-07-28T20:32:21.575Z,53.00
2022-07-28T20:34:48.255Z,53.00
2022-07-28T20:37:27.802Z,53.10
2022-07-28T20:40:01.855Z,53.20
2022-07-28T20:42:28.526Z,53.30
2022-07-28T20:44:55.238Z,53.40
2022-07-28T20:47:23.222Z,53.40
2022-07-28T20:49:49.952Z,53.50
2022-07-28T20:52:16.627Z,53.50
2022-07-28T20:54:43.323Z,53.50
2022-07-28T20:57:10.837Z,53.50
2022-07-28T20:59:37.517Z,53.60
2022-07-28T21:02:04.391Z,53.50
2022-07-28T21:04:31.175Z,53.50
2022-07-28T21:07:02.055Z,53.60
2022-07-28T21:09:29.314Z,53.70
2022-07-28T21:11:56.148Z,53.70
2022-07-28T21:14:22.794Z,53.90
2022-07-28T21:16:49.556Z,53.90
2022-07-28T21:19:16.434Z,54.00
2022-07-28T21:21:43.129Z,54.10
2022-07-28T21:24:09.846Z,54.10
2022-07-28T21:26:36.570Z,54.20
2022-07-28T21:29:12.497Z,54.30
2022-07-28T21:32:02.373Z,54.40
2022-07-28T21:34:28.857Z,54.50
2022-07-28T21:36:55.530Z,54.60
2022-07-28T21:39:22.171Z,54.70
2022-07-28T21:41:48.900Z,54.80
2022-07-28T21:44:15.885Z,54.90
2022-07-28T21:46:45.554Z,55.00
2022-07-28T21:49:12.489Z,55.10
2022-07-28T21:51:39.819Z,55.20
2022-07-28T21:54:06.756Z,55.20
2022-07-28T21:56:34.669Z,55.30
2022-07-28T21:59:02.598Z,55.40
2022-07-28T22:01:29.464Z,55.50
2022-07-28T22:03:56.638Z,55.60
2022-07-28T22:06:23.838Z,55.80
2022-07-28T22:08:53.457Z,55.80
2022-07-28T22:11:21.262Z,55.80
2022-07-28T22:13:47.942Z,56.00
2022-07-28T22:16:15.454Z,56.00
2022-07-28T22:18:42.162Z,56.00
2022-07-28T22:21:08.855Z,56.20
2022-07-28T22:23:35.575Z,56.30
2022-07-28T22:26:02.945Z,56.40
2022-07-28T22:28:30.671Z,57.20
2022-07-28T22:30:58.869Z,56.60
2022-07-28T22:33:36.631Z,56.70
2022-07-28T22:36:04.525Z,56.80
2022-07-28T22:38:31.376Z,56.90
2022-07-28T22:40:58.526Z,57.00
2022-07-28T22:43:25.291Z,57.00
2022-07-28T22:45:52.045Z,57.10
2022-07-28T22:48:18.949Z,57.20
2022-07-28T22:50:45.626Z,57.20
2022-07-28T22:53:12.287Z,57.40
2022-07-28T22:55:39.871Z,57.50
2022-07-28T22:58:06.621Z,57.50
2022-07-28T23:00:33.689Z,57.50
2022-07-28T23:03:04.387Z,57.80
2022-07-28T23:05:31.315Z,57.70
2022-07-28T23:07:58.893Z,57.80
2022-07-28T23:10:26.520Z,57.70
2022-07-28T23:12:57.337Z,57.80
2022-07-28T23:15:39.687Z,58.50
2022-07-28T23:18:09.117Z,58.00
2022-07-28T23:20:35.856Z,58.10
2022-07-28T23:23:02.579Z,58.10
2022-07-28T23:25:29.286Z,58.10
2022-07-28T23:27:55.964Z,58.20
2022-07-28T23:30:22.635Z,58.30
2022-07-28T23:32:52.444Z,58.20
2022-07-28T23:35:19.611Z,58.30
2022-07-28T23:37:46.295Z,58.40
2022-07-28T23:40:13.651Z,58.50
2022-07-28T23:42:40.477Z,58.50
2022-07-28T23:45:07.918Z,58.60
2022-07-28T23:47:34.682Z,58.70
2022-07-28T23:50:02.160Z,58.80
2022-07-28T23:52:29.036Z,58.80
2022-07-28T23:54:55.823Z,58.80
2022-07-28T23:57:22.611Z,58.90
2022-07-28T23:59:49.334Z,58.80
